L'Escala, Spain

10:05 AM CEST on September 27, 2016 (GMT +0200)
Passeig Maritim | | Change Station

Elev 20 ft 42.12 °N, 3.14 °E | Updated 251 days ago

Partly Cloudy
Partly Cloudy
77 °F
Feels Like 77 °F
N
4
Wind Variable Wind from NE
Gusts mph

Today
High -- | Low -- °F
--% Chance of Precip.
Yesterday
High -- | Low -- °F
Precip. -- in
Pressure 30.24 in
Visibility 6.2 miles
Clouds Few 5000 ft
Dew Point 49 °F
Humidity 38%
Rainfall in
Snow Depth Not available.
7:40 AM 7:35 PM
Waning Crescent, 13% visible
METAR LEGE 270730Z 34001KT 9999 FEW050 19/13 Q1024
Pressure 30.24 in
Visibility 6.2 miles
Clouds Few 5000 ft
Dew Point 49 °F
Humidity 38%
Rainfall in
Snow Depth Not available.
7:40 AM 7:35 PM
Waning Crescent, 13% visible
METAR LEGE 270730Z 34001KT 9999 FEW050 19/13 Q1024

10-Day Weather Forecast

×

Almanac

Astronomy

Sep. 27, 2016 Rise Set
Actual Time
Civil Twilight
Nautical Twilight
Astronomical Twilight
Moon
Length of Visible Light
Length of Day
Tomorrow will be .
, % of the Moon is Illuminated

Today's Extremes

Country Highs Country Lows

Community

WunderPhotos

Upload Photos

1,942,040 photos uploaded!

WunderBlog® & News

Nearby

Air Quality

  Air Quality AQ Index Pollutant
Not available.

Snow Depth

Station Depth Elevation

Earthquake Activity

City Distance Mag. Time & Date
Minimum magnitude displayed is 2.5.

Coastal Water Temperatures

Place Temperature

Stations

Nearby Weather Stations

Station Location Temp. Windchill Dew Point Humidity Wind Precip. Elev Updated Type